KPHN/PHN METAR and TAF weather

Enter ICAO airport designator
Station Type Date Time Source
KPHN METAR 2021/09/16 20:35 UTC NOAA

KPHN 162035Z AUTO 13006KT 10SM BKN055 25/12 A3014 RMK AO2


Station Type Date Time Source
KPHN Decoded METAR 2021/09/16 20:35 UTC NOAA

St. Clair County International, MI, United States (KPHN) 42-55N 082-32W
Sep 16, 2021 - 04:35 PM EDT / 2021.09.16 2035 UTC
Wind: from the SE (130 degrees) at 7 MPH (6 KT):0
Visibility: 10 mile(s):0
Sky conditions: mostly cloudy
Temperature: 77 F (25 C)
Dew Point: 53 F (12 C)
Relative Humidity: 44%
Pressure (altimeter): 30.14 in. Hg (1020 hPa)
ob: KPHN 162035Z AUTO 13006KT 10SM BKN055 25/12 A3014 RMK AO2
cycle: 20

Station Type Date Time Source
KPHN TAF UTC NOAA

Error!

Example: see airport list